sensor_id;sensor_type;location;lat;lon;timestamp;pressure;altitude;pressure_sealevel;temperature;humidity
34506;BME280;20748;42.632;23.198;2022-09-30T00:00:53;91749.91;;;14.63;100.00
34506;BME280;20748;42.632;23.198;2022-09-30T00:03:26;91758.75;;;14.71;100.00
34506;BME280;20748;42.632;23.198;2022-09-30T00:06:02;91760.31;;;14.72;100.00
34506;BME280;20748;42.632;23.198;2022-09-30T00:08:40;91755.38;;;14.70;100.00
34506;BME280;20748;42.632;23.198;2022-09-30T00:11:15;91755.59;;;14.65;100.00
34506;BME280;20748;42.632;23.198;2022-09-30T00:13:50;91748.25;;;14.58;100.00
34506;BME280;20748;42.632;23.198;2022-09-30T00:16:24;91750.13;;;14.45;100.00
34506;BME280;20748;42.632;23.198;2022-09-30T00:18:57;91748.03;;;14.51;100.00
34506;BME280;20748;42.632;23.198;2022-09-30T00:21:31;91753.63;;;14.37;100.00
34506;BME280;20748;42.632;23.198;2022-09-30T00:24:06;91758.84;;;14.25;100.00
34506;BME280;20748;42.632;23.198;2022-09-30T00:26:39;91762.47;;;14.32;100.00
34506;BME280;20748;42.632;23.198;2022-09-30T00:29:12;91767.84;;;14.36;100.00
34506;BME280;20748;42.632;23.198;2022-09-30T00:31:44;91759.19;;;14.35;100.00
34506;BME280;20748;42.632;23.198;2022-09-30T00:34:17;91761.06;;;14.35;100.00
34506;BME280;20748;42.632;23.198;2022-09-30T00:36:52;91752.50;;;14.26;100.00
34506;BME280;20748;42.632;23.198;2022-09-30T00:39:26;91750.44;;;14.31;100.00
34506;BME280;20748;42.632;23.198;2022-09-30T00:42:00;91741.81;;;14.31;100.00
34506;BME280;20748;42.632;23.198;2022-09-30T00:44:45;91741.16;;;14.34;100.00
34506;BME280;20748;42.632;23.198;2022-09-30T00:47:36;91739.06;;;14.40;100.00
34506;BME280;20748;42.632;23.198;2022-09-30T00:50:16;91740.59;;;14.41;100.00
34506;BME280;20748;42.632;23.198;2022-09-30T00:52:52;91743.69;;;14.43;100.00
34506;BME280;20748;42.632;23.198;2022-09-30T00:55:32;91744.75;;;14.42;100.00
34506;BME280;20748;42.632;23.198;2022-09-30T00:58:08;91754.19;;;14.43;100.00
34506;BME280;20748;42.632;23.198;2022-09-30T01:00:43;91748.56;;;14.44;100.00
34506;BME280;20748;42.632;23.198;2022-09-30T01:03:16;91741.81;;;14.43;100.00
34506;BME280;20748;42.632;23.198;2022-09-30T01:05:50;91742.78;;;14.39;100.00
34506;BME280;20748;42.632;23.198;2022-09-30T01:08:23;91738.66;;;14.38;100.00
34506;BME280;20748;42.632;23.198;2022-09-30T01:10:57;91738.09;;;14.44;100.00
34506;BME280;20748;42.632;23.198;2022-09-30T01:13:34;91741.06;;;14.43;100.00
34506;BME280;20748;42.632;23.198;2022-09-30T01:16:24;91741.69;;;14.40;100.00
34506;BME280;20748;42.632;23.198;2022-09-30T01:19:18;91738.97;;;14.36;100.00
34506;BME280;20748;42.632;23.198;2022-09-30T01:22:05;91748.81;;;14.39;100.00
34506;BME280;20748;42.632;23.198;2022-09-30T01:25:12;91753.28;;;14.39;100.00
34506;BME280;20748;42.632;23.198;2022-09-30T01:28:11;91755.91;;;14.39;100.00
34506;BME280;20748;42.632;23.198;2022-09-30T01:30:58;91746.19;;;14.39;100.00
34506;BME280;20748;42.632;23.198;2022-09-30T01:33:41;91755.13;;;14.38;100.00
34506;BME280;20748;42.632;23.198;2022-09-30T01:36:24;91757.13;;;14.41;100.00
34506;BME280;20748;42.632;23.198;2022-09-30T01:39:09;91760.06;;;14.40;100.00
34506;BME280;20748;42.632;23.198;2022-09-30T01:41:49;91752.50;;;14.38;100.00
34506;BME280;20748;42.632;23.198;2022-09-30T01:44:32;91756.56;;;14.35;100.00
34506;BME280;20748;42.632;23.198;2022-09-30T01:47:12;91750.66;;;14.26;100.00
34506;BME280;20748;42.632;23.198;2022-09-30T01:49:52;91759.84;;;14.32;100.00
34506;BME280;20748;42.632;23.198;2022-09-30T01:52:35;91761.03;;;14.22;100.00
34506;BME280;20748;42.632;23.198;2022-09-30T01:55:14;91761.78;;;14.23;100.00
34506;BME280;20748;42.632;23.198;2022-09-30T01:57:53;91760.81;;;14.15;100.00
34506;BME280;20748;42.632;23.198;2022-09-30T02:00:26;91758.19;;;14.15;100.00
34506;BME280;20748;42.632;23.198;2022-09-30T02:03:03;91762.44;;;14.07;100.00
34506;BME280;20748;42.632;23.198;2022-09-30T02:05:41;91759.72;;;14.04;100.00
34506;BME280;20748;42.632;23.198;2022-09-30T02:08:18;91768.13;;;14.09;100.00
34506;BME280;20748;42.632;23.198;2022-09-30T02:10:56;91770.31;;;14.07;100.00
34506;BME280;20748;42.632;23.198;2022-09-30T02:13:35;91768.22;;;14.01;100.00
34506;BME280;20748;42.632;23.198;2022-09-30T02:16:14;91768.31;;;14.04;100.00
34506;BME280;20748;42.632;23.198;2022-09-30T02:18:51;91768.09;;;13.97;100.00
34506;BME280;20748;42.632;23.198;2022-09-30T02:21:31;91774.88;;;13.98;100.00
34506;BME280;20748;42.632;23.198;2022-09-30T02:24:08;91786.44;;;13.97;100.00
34506;BME280;20748;42.632;23.198;2022-09-30T02:26:43;91788.22;;;13.72;100.00
34506;BME280;20748;42.632;23.198;2022-09-30T02:29:19;91786.03;;;13.74;100.00
34506;BME280;20748;42.632;23.198;2022-09-30T02:31:57;91764.06;;;13.45;100.00
34506;BME280;20748;42.632;23.198;2022-09-30T02:34:34;91778.53;;;13.51;100.00
34506;BME280;20748;42.632;23.198;2022-09-30T02:37:11;91782.03;;;13.55;100.00
34506;BME280;20748;42.632;23.198;2022-09-30T02:39:49;91768.00;;;13.60;100.00
34506;BME280;20748;42.632;23.198;2022-09-30T02:42:26;91766.00;;;13.56;100.00
34506;BME280;20748;42.632;23.198;2022-09-30T02:45:03;91770.47;;;13.56;100.00
34506;BME280;20748;42.632;23.198;2022-09-30T02:47:48;91771.16;;;13.44;100.00
34506;BME280;20748;42.632;23.198;2022-09-30T02:50:30;91769.28;;;13.53;100.00
34506;BME280;20748;42.632;23.198;2022-09-30T02:53:15;91770.69;;;13.51;100.00
34506;BME280;20748;42.632;23.198;2022-09-30T02:56:03;91779.22;;;13.60;100.00
34506;BME280;20748;42.632;23.198;2022-09-30T02:58:40;91769.13;;;13.50;100.00
34506;BME280;20748;42.632;23.198;2022-09-30T03:01:15;91781.22;;;13.63;100.00
34506;BME280;20748;42.632;23.198;2022-09-30T03:03:49;91781.34;;;13.67;100.00
34506;BME280;20748;42.632;23.198;2022-09-30T03:06:23;91789.72;;;13.60;100.00
34506;BME280;20748;42.632;23.198;2022-09-30T03:08:55;91786.53;;;13.54;100.00
34506;BME280;20748;42.632;23.198;2022-09-30T03:11:29;91787.47;;;13.50;100.00
34506;BME280;20748;42.632;23.198;2022-09-30T03:14:21;91788.97;;;13.60;100.00
34506;BME280;20748;42.632;23.198;2022-09-30T03:20:21;91781.03;;;13.68;100.00
34506;BME280;20748;42.632;23.198;2022-09-30T03:23:14;91789.50;;;13.65;100.00
34506;BME280;20748;42.632;23.198;2022-09-30T03:25:55;91788.19;;;13.59;100.00
34506;BME280;20748;42.632;23.198;2022-09-30T03:28:34;91791.69;;;13.63;100.00
34506;BME280;20748;42.632;23.198;2022-09-30T03:31:14;91787.19;;;13.42;100.00
34506;BME280;20748;42.632;23.198;2022-09-30T03:33:54;91793.19;;;13.52;100.00
34506;BME280;20748;42.632;23.198;2022-09-30T03:36:34;91786.19;;;13.56;100.00
34506;BME280;20748;42.632;23.198;2022-09-30T03:39:19;91772.75;;;13.58;100.00
34506;BME280;20748;42.632;23.198;2022-09-30T03:42:01;91781.63;;;13.44;100.00
34506;BME280;20748;42.632;23.198;2022-09-30T03:47:37;91804.28;;;13.49;100.00
34506;BME280;20748;42.632;23.198;2022-09-30T03:50:14;91807.50;;;13.54;100.00
34506;BME280;20748;42.632;23.198;2022-09-30T03:52:48;91811.06;;;13.50;100.00
34506;BME280;20748;42.632;23.198;2022-09-30T03:55:22;91808.34;;;13.37;100.00
34506;BME280;20748;42.632;23.198;2022-09-30T03:57:56;91805.53;;;13.42;100.00
34506;BME280;20748;42.632;23.198;2022-09-30T04:00:29;91815.09;;;13.47;100.00
34506;BME280;20748;42.632;23.198;2022-09-30T04:03:03;91811.88;;;13.41;100.00
34506;BME280;20748;42.632;23.198;2022-09-30T04:05:35;91808.03;;;13.39;100.00
34506;BME280;20748;42.632;23.198;2022-09-30T04:08:08;91801.44;;;13.33;100.00
34506;BME280;20748;42.632;23.198;2022-09-30T04:10:42;91795.34;;;13.50;100.00
34506;BME280;20748;42.632;23.198;2022-09-30T04:13:14;91800.13;;;13.48;100.00
34506;BME280;20748;42.632;23.198;2022-09-30T04:15:52;91797.94;;;13.50;100.00
34506;BME280;20748;42.632;23.198;2022-09-30T04:18:25;91801.78;;;13.52;100.00
34506;BME280;20748;42.632;23.198;2022-09-30T04:20:57;91785.31;;;13.52;100.00
34506;BME280;20748;42.632;23.198;2022-09-30T04:23:33;91790.09;;;13.50;100.00
34506;BME280;20748;42.632;23.198;2022-09-30T04:26:09;91801.22;;;13.47;100.00
34506;BME280;20748;42.632;23.198;2022-09-30T04:28:42;91801.16;;;13.55;100.00
34506;BME280;20748;42.632;23.198;2022-09-30T04:31:15;91802.94;;;13.64;100.00
34506;BME280;20748;42.632;23.198;2022-09-30T04:33:48;91805.06;;;13.71;100.00
34506;BME280;20748;42.632;23.198;2022-09-30T04:36:21;91801.22;;;13.68;100.00
34506;BME280;20748;42.632;23.198;2022-09-30T04:38:54;91804.84;;;13.76;100.00
34506;BME280;20748;42.632;23.198;2022-09-30T04:41:26;91813.28;;;13.81;98.30
34506;BME280;20748;42.632;23.198;2022-09-30T04:44:00;91807.25;;;14.02;95.59
34506;BME280;20748;42.632;23.198;2022-09-30T04:46:36;91812.28;;;14.07;95.94
34506;BME280;20748;42.632;23.198;2022-09-30T04:49:09;91822.59;;;14.25;93.03
34506;BME280;20748;42.632;23.198;2022-09-30T04:51:41;91818.69;;;14.31;93.34
34506;BME280;20748;42.632;23.198;2022-09-30T04:54:16;91841.22;;;14.45;91.00
34506;BME280;20748;42.632;23.198;2022-09-30T04:56:50;91838.94;;;14.56;90.33
34506;BME280;20748;42.632;23.198;2022-09-30T04:59:22;91841.47;;;14.64;88.95
34506;BME280;20748;42.632;23.198;2022-09-30T05:01:55;91838.63;;;14.70;89.77
34506;BME280;20748;42.632;23.198;2022-09-30T05:04:27;91840.16;;;14.71;89.16
34506;BME280;20748;42.632;23.198;2022-09-30T05:07:00;91840.44;;;14.78;89.89
34506;BME280;20748;42.632;23.198;2022-09-30T05:09:34;91841.19;;;14.79;89.95
34506;BME280;20748;42.632;23.198;2022-09-30T05:12:07;91855.97;;;14.83;89.58
34506;BME280;20748;42.632;23.198;2022-09-30T05:14:39;91857.25;;;14.77;91.31
34506;BME280;20748;42.632;23.198;2022-09-30T05:17:12;91856.50;;;14.76;92.52
34506;BME280;20748;42.632;23.198;2022-09-30T05:19:44;91859.13;;;14.76;92.72
34506;BME280;20748;42.632;23.198;2022-09-30T05:22:16;91856.69;;;14.71;93.70
34506;BME280;20748;42.632;23.198;2022-09-30T05:24:49;91869.03;;;14.71;94.44
34506;BME280;20748;42.632;23.198;2022-09-30T05:27:22;91873.06;;;14.68;95.04
34506;BME280;20748;42.632;23.198;2022-09-30T05:29:55;91877.56;;;14.68;95.66
34506;BME280;20748;42.632;23.198;2022-09-30T05:32:27;91881.94;;;14.63;95.82
34506;BME280;20748;42.632;23.198;2022-09-30T05:35:00;91879.88;;;14.69;95.76
34506;BME280;20748;42.632;23.198;2022-09-30T05:37:34;91885.13;;;14.69;95.27
34506;BME280;20748;42.632;23.198;2022-09-30T05:40:07;91890.03;;;14.71;95.45
34506;BME280;20748;42.632;23.198;2022-09-30T05:42:40;91897.41;;;14.77;95.75
34506;BME280;20748;42.632;23.198;2022-09-30T05:45:13;91894.38;;;14.88;96.10
34506;BME280;20748;42.632;23.198;2022-09-30T05:47:50;91909.44;;;14.79;95.27
34506;BME280;20748;42.632;23.198;2022-09-30T05:50:23;91911.03;;;14.92;94.49
34506;BME280;20748;42.632;23.198;2022-09-30T05:52:56;91901.38;;;15.09;93.42
34506;BME280;20748;42.632;23.198;2022-09-30T05:55:29;91891.44;;;15.02;91.41
34506;BME280;20748;42.632;23.198;2022-09-30T05:58:02;91913.97;;;15.28;88.61
34506;BME280;20748;42.632;23.198;2022-09-30T06:00:34;91912.88;;;15.41;89.83
34506;BME280;20748;42.632;23.198;2022-09-30T06:03:06;91915.84;;;15.52;83.27
34506;BME280;20748;42.632;23.198;2022-09-30T06:05:39;91916.34;;;15.70;81.64
34506;BME280;20748;42.632;23.198;2022-09-30T06:08:12;91913.69;;;15.83;80.15
34506;BME280;20748;42.632;23.198;2022-09-30T06:10:45;91911.84;;;15.96;81.34
34506;BME280;20748;42.632;23.198;2022-09-30T06:13:18;91910.69;;;16.09;77.52
34506;BME280;20748;42.632;23.198;2022-09-30T06:15:55;91911.75;;;16.21;78.19
34506;BME280;20748;42.632;23.198;2022-09-30T06:18:28;91911.28;;;16.31;77.82
34506;BME280;20748;42.632;23.198;2022-09-30T06:21:03;91921.75;;;16.44;77.23
34506;BME280;20748;42.632;23.198;2022-09-30T06:23:35;91923.81;;;16.50;74.66
34506;BME280;20748;42.632;23.198;2022-09-30T06:26:09;91940.06;;;16.69;74.14
34506;BME280;20748;42.632;23.198;2022-09-30T06:28:43;91935.50;;;16.82;73.11
34506;BME280;20748;42.632;23.198;2022-09-30T06:31:15;91933.81;;;16.89;73.83
34506;BME280;20748;42.632;23.198;2022-09-30T06:33:51;91935.59;;;17.01;73.91
34506;BME280;20748;42.632;23.198;2022-09-30T06:36:23;91944.56;;;17.13;71.31
34506;BME280;20748;42.632;23.198;2022-09-30T06:38:56;91942.13;;;17.20;70.06
34506;BME280;20748;42.632;23.198;2022-09-30T06:41:28;91954.50;;;17.36;70.75
34506;BME280;20748;42.632;23.198;2022-09-30T06:44:02;91952.31;;;17.38;69.01
34506;BME280;20748;42.632;23.198;2022-09-30T06:46:34;91956.81;;;17.53;69.19
34506;BME280;20748;42.632;23.198;2022-09-30T06:49:12;91964.88;;;17.61;68.36
34506;BME280;20748;42.632;23.198;2022-09-30T06:51:45;91966.66;;;17.73;66.85
34506;BME280;20748;42.632;23.198;2022-09-30T06:54:17;91969.03;;;17.78;67.03
34506;BME280;20748;42.632;23.198;2022-09-30T06:56:51;91966.72;;;17.76;64.84
34506;BME280;20748;42.632;23.198;2022-09-30T06:59:25;91973.34;;;17.86;64.70
34506;BME280;20748;42.632;23.198;2022-09-30T07:01:57;91976.06;;;18.06;66.96
34506;BME280;20748;42.632;23.198;2022-09-30T07:04:30;91964.75;;;18.25;66.35
34506;BME280;20748;42.632;23.198;2022-09-30T07:07:02;91980.47;;;18.37;65.19
34506;BME280;20748;42.632;23.198;2022-09-30T07:09:35;91988.09;;;18.43;62.72
34506;BME280;20748;42.632;23.198;2022-09-30T07:12:07;91983.53;;;18.59;63.11
34506;BME280;20748;42.632;23.198;2022-09-30T07:14:40;91979.16;;;18.67;62.17
34506;BME280;20748;42.632;23.198;2022-09-30T07:17:13;91988.38;;;18.77;61.99
34506;BME280;20748;42.632;23.198;2022-09-30T07:19:45;92002.63;;;18.92;62.21
34506;BME280;20748;42.632;23.198;2022-09-30T07:22:17;92012.06;;;18.93;61.20
34506;BME280;20748;42.632;23.198;2022-09-30T07:25:01;92011.44;;;19.19;62.21
34506;BME280;20748;42.632;23.198;2022-09-30T07:27:34;92019.63;;;19.34;60.93
34506;BME280;20748;42.632;23.198;2022-09-30T07:30:09;92016.56;;;19.32;59.33
34506;BME280;20748;42.632;23.198;2022-09-30T07:32:51;92013.50;;;19.30;58.83
34506;BME280;20748;42.632;23.198;2022-09-30T07:35:24;92021.44;;;19.30;58.39
34506;BME280;20748;42.632;23.198;2022-09-30T07:37:57;92014.81;;;19.40;59.63
34506;BME280;20748;42.632;23.198;2022-09-30T07:40:32;92018.03;;;19.53;57.99
34506;BME280;20748;42.632;23.198;2022-09-30T07:43:04;92021.88;;;19.55;57.66
34506;BME280;20748;42.632;23.198;2022-09-30T07:45:37;92016.47;;;19.48;58.13
34506;BME280;20748;42.632;23.198;2022-09-30T07:48:10;92031.88;;;19.66;58.29
34506;BME280;20748;42.632;23.198;2022-09-30T07:51:02;92026.94;;;19.64;56.53
34506;BME280;20748;42.632;23.198;2022-09-30T07:53:35;92022.97;;;19.78;57.27
34506;BME280;20748;42.632;23.198;2022-09-30T07:56:08;92028.34;;;19.85;57.46
34506;BME280;20748;42.632;23.198;2022-09-30T07:58:41;92031.84;;;19.89;56.51
34506;BME280;20748;42.632;23.198;2022-09-30T08:01:14;92033.66;;;19.85;56.11
34506;BME280;20748;42.632;23.198;2022-09-30T08:03:47;92045.47;;;19.91;56.23
34506;BME280;20748;42.632;23.198;2022-09-30T08:06:20;92044.16;;;20.01;58.24
34506;BME280;20748;42.632;23.198;2022-09-30T08:08:55;92050.50;;;19.96;57.64
34506;BME280;20748;42.632;23.198;2022-09-30T08:11:31;92052.41;;;19.96;54.09
34506;BME280;20748;42.632;23.198;2022-09-30T08:14:04;92053.41;;;19.91;55.64
34506;BME280;20748;42.632;23.198;2022-09-30T08:16:37;92047.72;;;19.89;54.44
34506;BME280;20748;42.632;23.198;2022-09-30T08:19:12;92070.69;;;20.05;56.73
34506;BME280;20748;42.632;23.198;2022-09-30T08:21:47;92064.81;;;19.95;55.52
34506;BME280;20748;42.632;23.198;2022-09-30T08:24:20;92073.44;;;20.12;55.54
34506;BME280;20748;42.632;23.198;2022-09-30T08:26:53;92063.94;;;20.38;56.41
34506;BME280;20748;42.632;23.198;2022-09-30T08:29:26;92087.28;;;20.29;54.60
34506;BME280;20748;42.632;23.198;2022-09-30T08:32:19;92078.75;;;20.39;54.46
34506;BME280;20748;42.632;23.198;2022-09-30T08:34:51;92077.41;;;20.52;54.49
34506;BME280;20748;42.632;23.198;2022-09-30T08:37:23;92074.59;;;20.42;53.69
34506;BME280;20748;42.632;23.198;2022-09-30T08:39:56;92073.97;;;20.52;53.56
34506;BME280;20748;42.632;23.198;2022-09-30T08:42:37;92074.84;;;20.87;54.43
34506;BME280;20748;42.632;23.198;2022-09-30T08:45:28;92076.47;;;20.99;52.49
34506;BME280;20748;42.632;23.198;2022-09-30T08:48:13;92080.59;;;20.96;50.83
34506;BME280;20748;42.632;23.198;2022-09-30T08:50:59;92081.41;;;21.00;52.44
34506;BME280;20748;42.632;23.198;2022-09-30T08:53:37;92085.13;;;21.30;49.42
34506;BME280;20748;42.632;23.198;2022-09-30T08:56:16;92095.22;;;21.13;50.30
34506;BME280;20748;42.632;23.198;2022-09-30T08:58:55;92096.13;;;21.28;50.09
34506;BME280;20748;42.632;23.198;2022-09-30T09:01:32;92107.00;;;21.16;50.84
34506;BME280;20748;42.632;23.198;2022-09-30T09:04:06;92112.47;;;21.00;49.31
34506;BME280;20748;42.632;23.198;2022-09-30T09:06:47;92119.31;;;21.01;51.14
34506;BME280;20748;42.632;23.198;2022-09-30T09:12:32;92110.88;;;21.26;49.88
34506;BME280;20748;42.632;23.198;2022-09-30T09:15:21;92106.72;;;21.25;50.43
34506;BME280;20748;42.632;23.198;2022-09-30T09:18:08;92115.06;;;21.27;50.87
34506;BME280;20748;42.632;23.198;2022-09-30T09:21:12;92120.13;;;21.39;50.14
34506;BME280;20748;42.632;23.198;2022-09-30T09:23:48;92118.25;;;21.40;49.49
34506;BME280;20748;42.632;23.198;2022-09-30T09:26:21;92116.22;;;21.29;49.92
34506;BME280;20748;42.632;23.198;2022-09-30T09:29:05;92121.66;;;21.40;49.64
34506;BME280;20748;42.632;23.198;2022-09-30T09:31:39;92121.97;;;21.35;49.41
34506;BME280;20748;42.632;23.198;2022-09-30T09:34:12;92118.00;;;21.52;49.15
34506;BME280;20748;42.632;23.198;2022-09-30T09:37:04;92112.97;;;21.78;49.68
34506;BME280;20748;42.632;23.198;2022-09-30T09:40:02;92119.69;;;21.71;48.55
34506;BME280;20748;42.632;23.198;2022-09-30T09:42:53;92127.59;;;21.68;48.36
34506;BME280;20748;42.632;23.198;2022-09-30T09:45:34;92113.47;;;21.98;48.81
34506;BME280;20748;42.632;23.198;2022-09-30T09:48:08;92117.66;;;21.95;49.33
34506;BME280;20748;42.632;23.198;2022-09-30T09:50:51;92110.81;;;21.94;48.71
34506;BME280;20748;42.632;23.198;2022-09-30T09:53:43;92109.13;;;22.20;51.52
34506;BME280;20748;42.632;23.198;2022-09-30T09:56:18;92095.81;;;22.17;50.76
34506;BME280;20748;42.632;23.198;2022-09-30T09:59:11;92113.47;;;21.98;48.76
34506;BME280;20748;42.632;23.198;2022-09-30T10:01:46;92128.25;;;22.40;49.56
34506;BME280;20748;42.632;23.198;2022-09-30T10:04:20;92136.22;;;22.40;49.03
34506;BME280;20748;42.632;23.198;2022-09-30T10:06:55;92131.69;;;22.45;48.00
34506;BME280;20748;42.632;23.198;2022-09-30T10:09:33;92124.13;;;22.50;49.54
34506;BME280;20748;42.632;23.198;2022-09-30T10:12:26;92125.28;;;22.49;48.93
34506;BME280;20748;42.632;23.198;2022-09-30T10:15:02;92126.56;;;22.70;48.91
34506;BME280;20748;42.632;23.198;2022-09-30T10:17:36;92125.84;;;22.77;49.09
34506;BME280;20748;42.632;23.198;2022-09-30T10:20:22;92123.59;;;22.86;49.50
34506;BME280;20748;42.632;23.198;2022-09-30T10:23:01;92123.25;;;22.95;46.94
34506;BME280;20748;42.632;23.198;2022-09-30T10:25:35;92108.78;;;22.85;46.04
34506;BME280;20748;42.632;23.198;2022-09-30T10:28:19;92101.88;;;22.70;47.80
34506;BME280;20748;42.632;23.198;2022-09-30T10:30:57;92106.41;;;22.69;47.09
34506;BME280;20748;42.632;23.198;2022-09-30T10:33:34;92116.84;;;23.00;46.60
34506;BME280;20748;42.632;23.198;2022-09-30T10:36:11;92114.25;;;23.18;46.89
34506;BME280;20748;42.632;23.198;2022-09-30T10:38:51;92108.38;;;22.79;46.06
34506;BME280;20748;42.632;23.198;2022-09-30T10:41:27;92113.34;;;22.81;44.92
34506;BME280;20748;42.632;23.198;2022-09-30T10:44:02;92119.72;;;22.73;45.87
34506;BME280;20748;42.632;23.198;2022-09-30T10:46:38;92115.94;;;22.74;47.08
34506;BME280;20748;42.632;23.198;2022-09-30T10:49:23;92111.53;;;23.03;46.48
34506;BME280;20748;42.632;23.198;2022-09-30T10:51:58;92115.78;;;23.23;46.39
34506;BME280;20748;42.632;23.198;2022-09-30T10:54:45;92112.84;;;23.53;45.16
34506;BME280;20748;42.632;23.198;2022-09-30T10:57:22;92120.47;;;23.62;45.16
34506;BME280;20748;42.632;23.198;2022-09-30T10:59:58;92123.72;;;23.15;42.48
34506;BME280;20748;42.632;23.198;2022-09-30T11:02:36;92110.59;;;23.55;43.51
34506;BME280;20748;42.632;23.198;2022-09-30T11:05:14;92125.44;;;23.74;44.40
34506;BME280;20748;42.632;23.198;2022-09-30T11:07:52;92130.03;;;23.96;43.34
34506;BME280;20748;42.632;23.198;2022-09-30T11:10:38;92118.97;;;23.72;41.93
34506;BME280;20748;42.632;23.198;2022-09-30T11:13:18;92114.44;;;24.02;42.66
34506;BME280;20748;42.632;23.198;2022-09-30T11:15:56;92109.88;;;24.02;42.61
34506;BME280;20748;42.632;23.198;2022-09-30T11:18:36;92117.91;;;24.06;44.46
34506;BME280;20748;42.632;23.198;2022-09-30T11:21:17;92110.66;;;23.88;43.39
34506;BME280;20748;42.632;23.198;2022-09-30T11:23:53;92118.63;;;23.95;42.71
34506;BME280;20748;42.632;23.198;2022-09-30T11:26:36;92115.63;;;24.22;42.92
34506;BME280;20748;42.632;23.198;2022-09-30T11:29:32;92118.28;;;23.93;41.71
34506;BME280;20748;42.632;23.198;2022-09-30T11:32:16;92127.78;;;23.94;40.54
34506;BME280;20748;42.632;23.198;2022-09-30T11:35:00;92130.84;;;24.36;41.23
34506;BME280;20748;42.632;23.198;2022-09-30T11:37:50;92120.94;;;24.59;41.91
34506;BME280;20748;42.632;23.198;2022-09-30T11:40:36;92119.00;;;24.63;38.91
34506;BME280;20748;42.632;23.198;2022-09-30T11:43:27;92121.31;;;24.83;40.13
34506;BME280;20748;42.632;23.198;2022-09-30T11:46:11;92123.19;;;24.60;39.73
34506;BME280;20748;42.632;23.198;2022-09-30T11:52:01;92129.34;;;24.21;41.69
34506;BME280;20748;42.632;23.198;2022-09-30T11:54:47;92127.06;;;24.16;43.11
34506;BME280;20748;42.632;23.198;2022-09-30T11:57:27;92130.81;;;23.89;42.79
34506;BME280;20748;42.632;23.198;2022-09-30T12:00:08;92128.47;;;23.58;43.32
34506;BME280;20748;42.632;23.198;2022-09-30T12:02:47;92121.22;;;23.52;44.68
34506;BME280;20748;42.632;23.198;2022-09-30T12:05:24;92128.34;;;23.26;43.88
34506;BME280;20748;42.632;23.198;2022-09-30T12:08:03;92139.09;;;23.51;43.59
34506;BME280;20748;42.632;23.198;2022-09-30T12:10:44;92135.66;;;23.47;42.54
34506;BME280;20748;42.632;23.198;2022-09-30T12:13:22;92137.56;;;23.46;43.70
34506;BME280;20748;42.632;23.198;2022-09-30T12:15:58;92130.75;;;23.67;44.64
34506;BME280;20748;42.632;23.198;2022-09-30T12:18:35;92127.19;;;23.27;42.84
34506;BME280;20748;42.632;23.198;2022-09-30T12:21:16;92126.03;;;23.24;43.55
34506;BME280;20748;42.632;23.198;2022-09-30T12:23:55;92140.63;;;23.49;44.60
34506;BME280;20748;42.632;23.198;2022-09-30T12:26:29;92130.81;;;23.82;44.35
34506;BME280;20748;42.632;23.198;2022-09-30T12:29:05;92137.66;;;23.76;42.55
34506;BME280;20748;42.632;23.198;2022-09-30T12:32:19;92139.16;;;23.77;41.68
34506;BME280;20748;42.632;23.198;2022-09-30T12:35:06;92142.63;;;23.99;42.06
34506;BME280;20748;42.632;23.198;2022-09-30T12:38:02;92140.75;;;24.14;40.95
34506;BME280;20748;42.632;23.198;2022-09-30T12:47:07;92135.38;;;23.92;41.11
34506;BME280;20748;42.632;23.198;2022-09-30T12:49:42;92130.41;;;23.87;41.41
34506;BME280;20748;42.632;23.198;2022-09-30T12:52:18;92138.44;;;23.98;41.97
34506;BME280;20748;42.632;23.198;2022-09-30T12:54:55;92138.84;;;24.11;41.04
34506;BME280;20748;42.632;23.198;2022-09-30T12:57:32;92134.28;;;24.08;41.02
34506;BME280;20748;42.632;23.198;2022-09-30T13:00:15;92142.63;;;24.03;39.19
34506;BME280;20748;42.632;23.198;2022-09-30T13:02:53;92144.91;;;24.04;40.54
34506;BME280;20748;42.632;23.198;2022-09-30T13:05:51;92139.53;;;23.64;40.68
34506;BME280;20748;42.632;23.198;2022-09-30T13:08:37;92143.72;;;23.69;40.39
34506;BME280;20748;42.632;23.198;2022-09-30T13:11:32;92139.16;;;23.80;40.46
34506;BME280;20748;42.632;23.198;2022-09-30T13:14:20;92149.06;;;23.80;39.95
34506;BME280;20748;42.632;23.198;2022-09-30T13:17:22;92134.22;;;23.79;40.94
34506;BME280;20748;42.632;23.198;2022-09-30T13:19:55;92141.84;;;23.80;40.65
34506;BME280;20748;42.632;23.198;2022-09-30T13:22:41;92149.03;;;23.69;40.53
34506;BME280;20748;42.632;23.198;2022-09-30T13:25:15;92152.09;;;23.74;39.81
34506;BME280;20748;42.632;23.198;2022-09-30T13:27:49;92159.25;;;23.52;39.47
34506;BME280;20748;42.632;23.198;2022-09-30T13:30:36;92150.56;;;23.77;41.28
34506;BME280;20748;42.632;23.198;2022-09-30T13:33:40;92149.47;;;23.85;40.30
34506;BME280;20748;42.632;23.198;2022-09-30T13:36:24;92145.28;;;23.88;41.36
34506;BME280;20748;42.632;23.198;2022-09-30T13:39:17;92143.00;;;23.97;41.22
34506;BME280;20748;42.632;23.198;2022-09-30T13:42:00;92138.41;;;23.76;40.67
34506;BME280;20748;42.632;23.198;2022-09-30T13:44:43;92146.03;;;23.92;41.27
34506;BME280;20748;42.632;23.198;2022-09-30T13:47:22;92144.94;;;24.19;41.10
34506;BME280;20748;42.632;23.198;2022-09-30T13:50:02;92140.31;;;24.01;41.48
34506;BME280;20748;42.632;23.198;2022-09-30T13:52:38;92152.50;;;23.87;40.91
34506;BME280;20748;42.632;23.198;2022-09-30T13:55:16;92150.19;;;23.82;40.72
34506;BME280;20748;42.632;23.198;2022-09-30T13:58:03;92160.41;;;23.58;41.84
34506;BME280;20748;42.632;23.198;2022-09-30T14:00:46;92162.69;;;23.49;41.21
34506;BME280;20748;42.632;23.198;2022-09-30T14:03:41;92156.25;;;23.72;41.39